Terminal Aerodrome Forecast
Issued by NWS Blacksburg, VA

Home | Current Version | Previous Version | Text Only | Print | Product List | Glossary On
Versions: 1 2 3 4 5 6 7 8 9 10 11 12 13 14 15 16 17 18 19 20 21 22 23 24 25 26
000
FTUS41 KRNK 191313 AAK
TAFROA
TAF AMD
KROA 191313Z 1913/2012 VRB03KT P6SM SKC
     FM191500 VRB02KT P6SM FEW250
     FM192000 15005KT P6SM BKN250
     FM200100 VRB02KT P6SM SCT250
     FM200900 VRB02KT P6SM SCT070=

USA.gov is the U.S. government's official web portal to all federal, state and local government web resources and services.